Time;durP1;ratioP1;P1;durP2;ratioP2;P2;SDS_P1;SDS_P2;PMS_P1;PMS_P2;Temp;Humidity;BMP_temperature;BMP_pressure;BME280_temperature;BME280_humidity;BME280_pressure;Samples;Min_cycle;Max_cycle;Signal;HPM_P1;HPM_P2
2022/04/04 00:02:26;;;;;;;22.08;14.32;;;7.10;99.90;;;;;;5090159;28;20050;-69
2022/04/04 00:05:30;;;;;;;21.35;13.68;;;7.20;99.90;;;;;;5089342;28;20079;-69
2022/04/04 00:08:34;;;;;;;13.60;9.90;;;7.10;99.90;;;;;;5090506;28;20379;-69
2022/04/04 00:11:39;;;;;;;15.10;9.90;;;7.10;99.90;;;;;;5090412;28;20062;-69
2022/04/04 00:14:43;;;;;;;20.00;12.32;;;7.10;99.90;;;;;;5090021;28;20047;-69
2022/04/04 00:17:47;;;;;;;12.60;9.35;;;7.10;99.90;;;;;;5089470;28;20399;-69
2022/04/04 00:20:51;;;;;;;13.32;9.52;;;7.00;99.90;;;;;;5090445;28;20043;-69
2022/04/04 00:23:55;;;;;;;13.25;9.35;;;7.00;99.90;;;;;;5090374;28;20043;-69
2022/04/04 00:27:01;;;;;;;14.98;9.65;;;7.00;99.90;;;;;;5089888;28;20047;-69
2022/04/04 00:30:05;;;;;;;15.25;9.70;;;6.90;99.90;;;;;;5090307;28;20047;-69
2022/04/04 00:33:10;;;;;;;16.02;8.18;;;6.90;99.90;;;;;;5090483;28;20047;-69
2022/04/04 00:36:14;;;;;;;17.73;9.70;;;6.90;99.90;;;;;;5090048;28;20047;-69
2022/04/04 00:39:19;;;;;;;15.77;8.68;;;6.80;99.90;;;;;;5090210;28;20525;-69
2022/04/04 00:42:23;;;;;;;13.45;8.05;;;6.80;99.90;;;;;;5090414;28;20059;-69
2022/04/04 00:45:27;;;;;;;12.57;7.85;;;6.80;99.90;;;;;;5090277;28;20055;-69
2022/04/04 00:48:31;;;;;;;12.52;7.95;;;6.80;99.90;;;;;;5089918;28;20047;-69
2022/04/04 00:51:36;;;;;;;10.98;7.00;;;6.90;99.90;;;;;;5090271;28;20043;-69
2022/04/04 00:54:40;;;;;;;13.82;8.10;;;6.80;99.90;;;;;;5089042;28;20039;-69
2022/04/04 00:57:45;;;;;;;11.27;7.28;;;6.90;99.90;;;;;;5089590;28;20059;-69
2022/04/04 01:00:49;;;;;;;11.73;7.18;;;6.90;99.90;;;;;;5090165;28;20075;-69
2022/04/04 01:03:53;;;;;;;10.95;7.00;;;6.90;99.90;;;;;;5089924;28;20047;-69
2022/04/04 01:06:59;;;;;;;13.27;6.63;;;6.90;99.90;;;;;;5089356;28;20048;-69
2022/04/04 01:10:06;;;;;;;12.77;6.90;;;7.00;99.90;;;;;;5089720;28;20043;-69
2022/04/04 01:13:11;;;;;;;8.60;6.50;;;7.00;99.90;;;;;;5089678;28;20047;-69
2022/04/04 01:16:17;;;;;;;11.30;6.70;;;7.00;99.90;;;;;;5092111;28;20198;-69
2022/04/04 01:19:21;;;;;;;10.02;6.45;;;7.00;99.90;;;;;;5093699;28;20039;-69
2022/04/04 01:22:25;;;;;;;10.93;7.57;;;7.00;99.90;;;;;;5093541;28;20062;-69
2022/04/04 01:25:31;;;;;;;11.30;7.40;;;7.00;99.90;;;;;;5093517;28;20047;-69
2022/04/04 01:28:38;;;;;;;12.90;7.38;;;7.00;99.90;;;;;;5093175;28;20062;-69
2022/04/04 01:31:42;;;;;;;12.45;7.57;;;7.00;99.90;;;;;;5093439;28;20043;-69
2022/04/04 01:34:46;;;;;;;10.05;6.70;;;7.00;99.90;;;;;;5093090;28;20047;-69
2022/04/04 01:37:51;;;;;;;11.70;7.43;;;6.90;99.90;;;;;;5092761;28;20058;-69
2022/04/04 01:40:55;;;;;;;11.20;6.10;;;6.90;99.90;;;;;;5093276;28;20047;-69
2022/04/04 01:43:59;;;;;;;12.65;6.10;;;6.90;99.90;;;;;;5093176;28;20051;-69
2022/04/04 01:47:04;;;;;;;9.27;6.18;;;6.90;99.90;;;;;;5092800;28;20051;-69
2022/04/04 01:50:09;;;;;;;8.30;5.85;;;6.90;99.90;;;;;;5093103;28;20043;-69
2022/04/04 01:53:29;;;;;;;11.25;6.10;;;6.90;99.90;;;;;;5093256;28;20039;-69
2022/04/04 01:56:34;;;;;;;6.80;5.45;;;6.90;99.90;;;;;;5092816;28;20055;-69
2022/04/04 01:59:39;;;;;;;8.57;6.18;;;6.90;99.90;;;;;;5093353;28;20490;-68
2022/04/04 02:02:42;;;;;;;10.38;6.57;;;6.80;99.90;;;;;;5092948;28;20032;-68
2022/04/04 02:05:48;;;;;;;12.27;7.05;;;6.80;99.90;;;;;;5093161;28;20484;-68
2022/04/04 02:08:52;;;;;;;12.32;6.70;;;6.80;99.90;;;;;;5092895;28;20426;-69
2022/04/04 02:11:57;;;;;;;10.23;6.50;;;6.80;99.90;;;;;;5093033;28;20063;-69
2022/04/04 02:15:01;;;;;;;9.52;5.80;;;6.80;99.90;;;;;;5092878;28;20038;-69
2022/04/04 02:18:05;;;;;;;9.30;6.47;;;6.80;99.90;;;;;;5091928;28;20032;-69
2022/04/04 02:21:09;;;;;;;10.88;6.25;;;6.70;99.90;;;;;;5093160;28;20051;-69
2022/04/04 02:24:14;;;;;;;11.27;6.53;;;6.70;99.90;;;;;;5092189;28;20047;-69
2022/04/04 02:27:19;;;;;;;11.90;7.10;;;6.70;99.90;;;;;;5091151;28;20056;-69
2022/04/04 02:30:24;;;;;;;11.32;6.80;;;6.70;99.90;;;;;;5091887;28;20047;-69
2022/04/04 02:33:30;;;;;;;10.20;7.28;;;6.70;99.90;;;;;;5092067;28;20043;-69
2022/04/04 02:36:34;;;;;;;11.52;7.65;;;6.70;99.90;;;;;;5091559;28;20046;-69
2022/04/04 02:39:38;;;;;;;11.68;7.68;;;6.60;99.90;;;;;;5091643;28;20055;-69
2022/04/04 02:42:42;;;;;;;10.82;7.28;;;6.60;99.90;;;;;;5091891;28;20058;-69
2022/04/04 02:45:46;;;;;;;9.48;6.60;;;6.50;99.90;;;;;;5091897;28;20050;-69
2022/04/04 02:48:50;;;;;;;9.43;6.22;;;6.40;99.90;;;;;;5091147;28;20052;-69
2022/04/04 02:51:54;;;;;;;10.02;6.57;;;6.40;99.90;;;;;;5091863;28;20059;-68
2022/04/04 02:56:28;;;;;;;8.80;5.43;;;6.30;99.90;;;;;;5091420;28;20039;-68
2022/04/04 02:58:22;;;;;;;8.32;5.05;;;6.20;99.90;;;;;;5090852;28;20390;-68
2022/04/04 03:01:27;;;;;;;7.35;4.95;;;6.20;99.90;;;;;;5091605;28;20047;-68
2022/04/04 03:04:31;;;;;;;10.05;6.13;;;6.20;99.90;;;;;;5091411;28;20047;-68
2022/04/04 03:07:35;;;;;;;11.82;6.85;;;6.10;99.90;;;;;;5090868;28;20051;-68
2022/04/04 03:10:39;;;;;;;10.07;5.85;;;6.10;99.90;;;;;;5091347;28;20047;-69
2022/04/04 03:13:43;;;;;;;7.70;5.45;;;6.00;99.90;;;;;;5091295;28;20047;-68
2022/04/04 03:16:47;;;;;;;8.45;5.68;;;6.00;99.90;;;;;;5090821;28;20047;-68
2022/04/04 03:19:52;;;;;;;9.93;6.28;;;5.90;99.90;;;;;;5091138;28;20059;-68
2022/04/04 03:22:57;;;;;;;10.48;6.88;;;5.90;99.90;;;;;;5091232;28;20056;-68
2022/04/04 03:26:01;;;;;;;10.20;7.07;;;5.90;99.90;;;;;;5090767;28;20059;-68
2022/04/04 03:29:05;;;;;;;11.45;6.38;;;6.00;99.90;;;;;;5091009;28;20043;-68
2022/04/04 03:32:10;;;;;;;11.32;7.07;;;6.00;99.90;;;;;;5091223;28;20050;-69
2022/04/04 03:35:14;;;;;;;9.95;6.28;;;5.90;99.90;;;;;;5090956;28;20039;-68
2022/04/04 03:38:18;;;;;;;7.95;6.07;;;6.50;99.90;;;;;;5089562;28;20039;-68
2022/04/04 03:41:22;;;;;;;11.43;6.45;;;5.70;99.90;;;;;;5091124;28;20040;-68
2022/04/04 03:44:26;;;;;;;14.85;7.50;;;5.70;99.90;;;;;;5090676;28;20047;-68
2022/04/04 03:47:32;;;;;;;11.18;6.75;;;5.60;99.90;;;;;;5090265;28;20047;-68
2022/04/04 03:50:36;;;;;;;11.57;7.78;;;5.50;99.90;;;;;;5090362;28;20403;-68
2022/04/04 03:53:40;;;;;;;11.30;7.43;;;5.50;99.90;;;;;;5090567;28;20047;-68
2022/04/04 03:56:45;;;;;;;9.27;6.80;;;5.40;99.90;;;;;;5089980;28;20507;-68
2022/04/04 03:59:49;;;;;;;8.40;6.70;;;5.40;99.90;;;;;;5090195;28;20051;-68
2022/04/04 04:02:54;;;;;;;11.60;7.82;;;5.40;99.90;;;;;;5090492;28;20040;-69
2022/04/04 04:06:11;;;;;;;18.30;10.85;;;5.30;99.90;;;;;;5090283;28;20399;-68
2022/04/04 04:09:15;;;;;;;20.20;11.32;;;5.30;99.90;;;;;;5090204;28;20493;-68
2022/04/04 04:12:20;;;;;;;17.70;11.85;;;5.30;99.90;;;;;;5090265;28;20050;-69
2022/04/04 04:15:25;;;;;;;18.77;11.18;;;5.30;99.90;;;;;;5090417;28;20047;-68
2022/04/04 04:18:29;;;;;;;16.45;10.48;;;5.30;99.90;;;;;;5089949;28;20040;-68
2022/04/04 04:21:35;;;;;;;17.92;11.45;;;5.40;99.90;;;;;;5090396;28;20501;-68
2022/04/04 04:24:40;;;;;;;15.25;10.80;;;5.40;99.90;;;;;;5090181;28;20059;-68
2022/04/04 04:27:45;;;;;;;22.52;13.77;;;5.40;99.90;;;;;;5090031;28;20051;-68
2022/04/04 04:30:49;;;;;;;19.13;10.98;;;5.40;99.90;;;;;;5089226;28;20051;-68
2022/04/04 04:33:53;;;;;;;66.20;33.72;;;5.40;99.90;;;;;;5089939;28;20039;-68
2022/04/04 04:36:57;;;;;;;26.17;15.20;;;5.40;99.90;;;;;;5089755;28;20051;-68
2022/04/04 04:40:01;;;;;;;17.77;11.10;;;5.30;99.90;;;;;;5089994;28;20050;-68
2022/04/04 04:43:05;;;;;;;19.00;11.82;;;5.20;99.90;;;;;;5090158;28;20399;-68
2022/04/04 04:46:09;;;;;;;17.15;11.82;;;5.10;99.90;;;;;;5089645;28;20039;-68
2022/04/04 04:49:13;;;;;;;21.17;12.50;;;5.00;99.90;;;;;;5091056;28;20043;-68
2022/04/04 04:52:17;;;;;;;20.25;12.07;;;4.90;99.90;;;;;;5094262;28;20497;-68
2022/04/04 04:55:23;;;;;;;19.10;11.65;;;4.80;99.90;;;;;;5094035;28;20039;-68
2022/04/04 04:58:27;;;;;;;17.55;11.13;;;4.70;99.90;;;;;;5093870;28;20051;-68
2022/04/04 05:01:31;;;;;;;19.83;12.07;;;4.60;99.90;;;;;;5093746;28;20039;-69
2022/04/04 05:04:35;;;;;;;27.73;17.05;;;4.60;99.90;;;;;;5093777;28;20047;-68
2022/04/04 05:07:39;;;;;;;59.03;30.48;;;4.60;99.90;;;;;;5093357;28;20333;-68
2022/04/04 05:10:43;;;;;;;126.35;59.70;;;4.70;99.90;;;;;;5093226;28;20047;-68
2022/04/04 05:13:47;;;;;;;80.72;40.25;;;4.70;99.90;;;;;;5092699;28;20066;-68
2022/04/04 05:16:53;;;;;;;36.38;19.50;;;4.80;99.90;;;;;;5093277;28;20036;-68
2022/04/04 05:19:57;;;;;;;22.38;13.07;;;4.80;99.90;;;;;;5093631;28;20062;-68
2022/04/04 05:23:01;;;;;;;20.05;12.77;;;4.90;99.90;;;;;;5094179;28;20043;-68
2022/04/04 05:26:06;;;;;;;20.55;11.52;;;4.90;99.90;;;;;;5093457;28;20039;-68
2022/04/04 05:29:10;;;;;;;18.67;10.70;;;5.00;99.90;;;;;;5093870;28;20043;-68
2022/04/04 05:32:14;;;;;;;15.40;9.55;;;5.00;99.90;;;;;;5093886;28;20390;-68
2022/04/04 05:35:19;;;;;;;39.65;9.45;;;5.00;99.90;;;;;;5093690;28;20390;-68
2022/04/04 05:38:23;;;;;;;11.63;7.80;;;5.00;99.90;;;;;;5093027;28;20043;-68
2022/04/04 05:41:29;;;;;;;18.25;7.85;;;5.10;99.90;;;;;;5092937;28;20494;-68
2022/04/04 05:44:32;;;;;;;12.55;8.40;;;5.30;99.90;;;;;;5093486;28;20050;-68
2022/04/04 05:47:37;;;;;;;13.63;8.35;;;5.30;99.90;;;;;;5092886;28;20059;-68
2022/04/04 05:50:41;;;;;;;14.40;9.05;;;5.30;99.90;;;;;;5092961;28;20035;-68
2022/04/04 05:53:46;;;;;;;14.27;8.90;;;5.40;99.90;;;;;;5093071;28;20043;-68
2022/04/04 05:56:50;;;;;;;11.43;8.75;;;5.50;99.90;;;;;;5092575;28;20051;-68
2022/04/04 05:59:54;;;;;;;17.48;9.75;;;5.60;99.90;;;;;;5093341;28;20051;-68
2022/04/04 06:02:58;;;;;;;17.67;10.88;;;5.70;99.90;;;;;;5093382;28;20039;-68
2022/04/04 06:06:02;;;;;;;13.18;8.88;;;5.90;99.90;;;;;;5092366;28;20051;-68
2022/04/04 06:09:06;;;;;;;15.15;8.68;;;6.10;99.90;;;;;;5093080;28;20067;-68
2022/04/04 06:12:10;;;;;;;13.52;7.80;;;6.20;99.90;;;;;;5091862;28;20039;-68
2022/04/04 06:15:15;;;;;;;14.30;9.38;;;6.30;99.90;;;;;;5109251;28;20070;-68
2022/04/04 06:18:19;;;;;;;11.75;8.02;;;6.40;99.90;;;;;;5112665;28;20057;-68
2022/04/04 06:21:23;;;;;;;17.10;8.63;;;6.60;99.90;;;;;;5112139;28;20711;-68
2022/04/04 06:24:27;;;;;;;11.60;6.82;;;6.60;99.90;;;;;;5109898;28;20054;-68
2022/04/04 06:27:31;;;;;;;10.00;6.25;;;6.80;99.90;;;;;;5095165;28;20042;-68
2022/04/04 06:30:35;;;;;;;12.10;5.85;;;7.20;99.90;;;;;;5101464;28;20374;-68
2022/04/04 06:33:40;;;;;;;11.23;4.43;;;8.10;99.90;;;;;;5099593;28;20046;-68
2022/04/04 06:36:45;;;;;;;10.50;5.57;;;10.70;99.90;;;;;;5110843;28;20039;-68
2022/04/04 06:39:49;;;;;;;8.73;4.43;;;11.50;99.90;;;;;;5107722;28;20054;-69
2022/04/04 06:42:55;;;;;;;6.55;3.70;;;11.60;99.90;;;;;;5107111;28;20042;-68
2022/04/04 06:46:00;;;;;;;6.07;3.90;;;11.70;99.90;;;;;;5106744;28;20043;-68
2022/04/04 06:49:05;;;;;;;8.05;3.70;;;11.60;99.90;;;;;;5104426;28;20382;-68
2022/04/04 06:52:11;;;;;;;6.80;3.40;;;11.50;99.90;;;;;;5107417;28;20051;-68
2022/04/04 06:55:16;;;;;;;5.22;3.10;;;13.40;99.90;;;;;;5104180;28;20051;-68
2022/04/04 06:58:21;;;;;;;8.18;3.17;;;14.60;99.90;;;;;;5100999;28;20039;-68
2022/04/04 07:01:25;;;;;;;6.15;3.00;;;15.80;99.90;;;;;;5103842;28;20042;-68
2022/04/04 07:04:28;;;;;;;5.30;2.40;;;17.00;99.90;;;;;;5104735;28;20050;-69
2022/04/04 07:07:33;;;;;;;7.10;2.85;;;18.10;98.60;;;;;;5099414;28;20501;-69
2022/04/04 07:10:37;;;;;;;5.80;2.67;;;17.70;97.80;;;;;;5108162;28;20043;-67
2022/04/04 07:13:44;;;;;;;5.95;3.05;;;16.00;99.00;;;;;;5110581;28;20038;-67
2022/04/04 07:16:51;;;;;;;5.45;3.28;;;15.00;99.90;;;;;;5109894;28;20050;-67
2022/04/04 07:19:56;;;;;;;4.97;2.92;;;14.30;99.90;;;;;;5105286;28;20038;-68
2022/04/04 07:23:00;;;;;;;4.70;2.80;;;14.00;99.90;;;;;;5111490;28;20071;-68
2022/04/04 07:26:04;;;;;;;3.17;2.50;;;16.40;99.90;;;;;;5111902;28;20517;-67
2022/04/04 07:29:09;;;;;;;6.05;2.90;;;16.90;99.00;;;;;;5095414;28;20042;-68
2022/04/04 07:32:13;;;;;;;3.65;2.75;;;17.00;97.70;;;;;;5103987;28;20106;-68
2022/04/04 07:35:18;;;;;;;5.40;2.85;;;17.00;97.40;;;;;;5104142;28;20035;-68
2022/04/04 07:38:22;;;;;;;4.03;2.70;;;16.90;99.30;;;;;;5110901;28;20379;-68
2022/04/04 07:41:26;;;;;;;6.95;3.83;;;19.70;97.10;;;;;;5105673;28;20058;-68
2022/04/04 07:44:32;;;;;;;4.95;3.78;;;21.40;94.50;;;;;;5101214;28;20039;-69
2022/04/04 07:47:38;;;;;;;4.97;3.20;;;20.10;93.80;;;;;;5108091;28;20034;-68
2022/04/04 07:50:44;;;;;;;7.00;2.97;;;17.60;94.70;;;;;;5099419;28;20390;-68
2022/04/04 07:53:48;;;;;;;4.43;2.60;;;18.60;96.00;;;;;;5103695;28;21753;-68
2022/04/04 07:56:53;;;;;;;5.10;2.80;;;20.60;93.80;;;;;;5101056;28;20054;-68
2022/04/04 07:59:59;;;;;;;4.60;2.90;;;20.30;94.80;;;;;;5107258;28;20058;-69
2022/04/04 08:03:04;;;;;;;7.22;3.55;;;22.00;93.60;;;;;;5105265;28;20513;-68
2022/04/04 08:06:10;;;;;;;8.68;3.65;;;22.90;90.70;;;;;;5107010;28;20046;-68
2022/04/04 08:09:15;;;;;;;6.65;3.35;;;21.10;93.10;;;;;;5100167;28;20047;-68
2022/04/04 08:12:19;;;;;;;5.80;3.58;;;23.60;92.40;;;;;;5096290;28;20053;-68
2022/04/04 08:15:23;;;;;;;6.50;3.30;;;23.50;87.00;;;;;;5109093;28;20058;-69
2022/04/04 08:18:27;;;;;;;6.10;3.53;;;19.10;92.50;;;;;;5101085;28;20047;-70
2022/04/04 08:21:31;;;;;;;6.82;3.30;;;20.10;92.20;;;;;;5107367;28;20043;-71
2022/04/04 08:24:36;;;;;;;6.22;3.67;;;21.90;92.10;;;;;;5095380;28;20050;-71
2022/04/04 08:27:43;;;;;;;8.90;3.45;;;18.40;91.10;;;;;;5109956;28;20043;-68
2022/04/04 08:30:47;;;;;;;8.10;4.05;;;18.00;92.80;;;;;;5106292;28;20043;-67
2022/04/04 08:33:51;;;;;;;5.53;4.13;;;16.30;93.70;;;;;;5107269;28;20046;-70
2022/04/04 08:36:55;;;;;;;11.00;4.43;;;16.70;94.00;;;;;;5110197;28;20043;-69
2022/04/04 08:40:01;;;;;;;8.15;4.38;;;14.60;97.30;;;;;;5106217;28;20035;-70
2022/04/04 08:43:11;;;;;;;8.85;5.38;;;15.60;97.00;;;;;;5107360;28;20042;-72
2022/04/04 08:46:16;;;;;;;6.07;4.10;;;19.40;94.00;;;;;;5103927;28;20054;-68
2022/04/04 08:49:20;;;;;;;10.02;4.40;;;21.80;90.90;;;;;;5111262;28;20050;-68
2022/04/04 08:52:26;;;;;;;6.20;3.30;;;23.50;88.20;;;;;;5103883;28;20390;-71
2022/04/04 08:55:31;;;;;;;7.40;3.28;;;23.80;85.30;;;;;;5099841;28;20047;-72
2022/04/04 08:58:36;;;;;;;6.28;2.90;;;25.90;81.90;;;;;;5103881;28;20039;-72
2022/04/04 09:01:40;;;;;;;5.28;3.17;;;26.20;77.10;;;;;;5101115;28;20051;-72
2022/04/04 09:04:51;;;;;;;9.90;4.15;;;20.70;82.80;;;;;;5097225;28;20403;-68
2022/04/04 09:08:07;;;;;;;8.80;3.50;;;20.10;87.10;;;;;;5101395;28;20133;-71
2022/04/04 09:11:12;;;;;;;5.32;3.25;;;18.80;89.80;;;;;;5105638;28;20046;-72
2022/04/04 09:14:21;;;;;;;4.82;2.60;;;21.10;89.60;;;;;;5104044;28;20047;-71
2022/04/04 09:17:32;;;;;;;5.90;3.33;;;25.00;83.80;;;;;;5102753;28;20039;-72
2022/04/04 09:20:48;;;;;;;7.53;3.10;;;23.20;80.30;;;;;;5102944;28;20051;-72
2022/04/04 09:23:54;;;;;;;5.90;3.92;;;21.30;81.80;;;;;;5100051;28;20042;-73
2022/04/04 09:27:13;;;;;;;6.40;3.70;;;20.00;85.40;;;;;;5100315;28;20039;-71
2022/04/04 09:30:21;;;;;;;6.60;3.72;;;19.70;86.60;;;;;;5100315;28;20038;-71
2022/04/04 09:33:40;;;;;;;6.28;3.70;;;17.70;89.20;;;;;;5104496;28;20038;-71
2022/04/04 09:36:48;;;;;;;6.13;3.10;;;17.50;90.70;;;;;;5103875;28;20509;-71
2022/04/04 09:40:13;;;;;;;6.15;3.63;;;19.50;86.40;;;;;;5104852;28;20513;-72
2022/04/04 09:43:18;;;;;;;6.93;4.18;;;20.90;85.60;;;;;;5107085;28;20390;-71
2022/04/04 09:46:23;;;;;;;6.88;4.25;;;23.90;81.90;;;;;;5108425;28;20054;-72
2022/04/04 09:49:28;;;;;;;7.88;3.03;;;26.90;79.10;;;;;;5101512;28;20043;-71
2022/04/04 09:52:50;;;;;;;8.68;5.45;;;21.80;80.30;;;;;;5103615;28;20055;-72
2022/04/04 09:55:56;;;;;;;6.82;3.58;;;23.60;78.20;;;;;;5102311;28;20062;-71
2022/04/04 09:59:00;;;;;;;8.57;4.35;;;22.20;77.40;;;;;;5105379;28;20030;-68
2022/04/04 10:02:05;;;;;;;7.88;5.13;;;21.10;81.60;;;;;;5105928;28;20050;-68
2022/04/04 10:05:10;;;;;;;8.88;4.85;;;19.10;86.10;;;;;;5107450;28;20038;-67
2022/04/04 10:08:17;;;;;;;10.13;4.43;;;17.70;87.00;;;;;;5104845;28;20655;-67
2022/04/04 10:11:22;;;;;;;11.65;5.45;;;14.80;91.50;;;;;;5110539;28;20042;-71
2022/04/04 10:14:28;;;;;;;12.85;7.53;;;15.80;93.00;;;;;;5107001;28;20051;-72
2022/04/04 10:17:33;;;;;;;12.20;7.40;;;18.90;92.70;;;;;;5113017;28;20039;-71
2022/04/04 10:20:37;;;;;;;8.70;6.00;;;24.00;84.90;;;;;;5109951;28;20046;-70
2022/04/04 10:23:43;;;;;;;6.70;4.18;;;24.90;77.30;;;;;;5109147;28;20379;-71
2022/04/04 10:26:50;;;;;;;9.13;4.65;;;22.60;81.60;;;;;;5101345;28;20046;-70
2022/04/04 10:30:05;;;;;;;9.13;5.20;;;21.70;81.00;;;;;;5103546;28;20047;-71
2022/04/04 10:33:32;;;;;;;7.00;4.13;;;20.00;81.50;;;;;;5104994;28;20051;-71
2022/04/04 10:36:36;;;;;;;6.82;4.00;;;22.70;81.40;;;;;;5109220;28;20042;-70
2022/04/04 10:39:47;;;;;;;8.95;4.45;;;26.00;76.40;;;;;;5103668;28;20501;-72
2022/04/04 10:43:10;;;;;;;4.88;3.20;;;25.70;77.80;;;;;;5104462;28;20051;-72
2022/04/04 10:46:17;;;;;;;3.80;2.33;;;29.00;73.20;;;;;;5100699;28;20047;-72
2022/04/04 10:49:21;;;;;;;6.05;2.92;;;30.90;65.70;;;;;;5103844;28;20394;-72
2022/04/04 10:52:43;;;;;;;8.27;4.65;;;30.20;68.70;;;;;;5105101;28;20042;-72
2022/04/04 10:55:50;;;;;;;7.07;4.07;;;28.90;66.60;;;;;;5112838;27;20403;-71
2022/04/04 10:59:20;;;;;;;9.15;4.63;;;24.40;69.00;;;;;;5110464;28;20047;-71
2022/04/04 11:02:25;;;;;;;7.70;5.15;;;21.40;72.20;;;;;;5104461;28;20039;-73
2022/04/04 11:09:05;;;;;;;8.27;4.60;;;17.40;82.50;;;;;;5098693;28;20051;-71
2022/04/04 11:12:14;;;;;;;8.18;4.70;;;18.40;83.90;;;;;;5107306;28;20034;-71
2022/04/04 11:15:42;;;;;;;9.10;4.30;;;19.40;81.70;;;;;;5106714;28;20066;-71
2022/04/04 11:18:53;;;;;;;14.43;6.18;;;20.00;81.00;;;;;;5103406;28;20046;-71
2022/04/04 11:21:58;;;;;;;12.10;5.90;;;19.60;80.10;;;;;;5106981;28;20042;-73
2022/04/04 11:25:05;;;;;;;8.52;3.95;;;19.20;81.30;;;;;;5110702;28;20396;-72
2022/04/04 11:28:10;;;;;;;10.93;4.22;;;20.60;81.20;;;;;;5103917;28;20046;-72
2022/04/04 11:31:16;;;;;;;6.90;3.08;;;23.90;70.90;;;;;;5106670;28;20046;-68
2022/04/04 11:34:23;;;;;;;4.32;2.75;;;23.80;70.70;;;;;;5103408;28;20387;-69
2022/04/04 11:37:29;;;;;;;8.60;3.53;;;25.90;70.50;;;;;;5105659;28;20046;-72
2022/04/04 11:40:37;;;;;;;4.78;3.00;;;27.20;65.00;;;;;;5108456;28;20035;-68
2022/04/04 11:43:50;;;;;;;6.07;2.97;;;26.50;62.10;;;;;;5104002;28;20042;-68
2022/04/04 11:47:09;;;;;;;7.22;3.38;;;25.20;66.50;;;;;;5105790;28;20044;-69
2022/04/04 11:50:14;;;;;;;4.68;2.70;;;26.80;67.10;;;;;;5101918;28;20072;-69
2022/04/04 11:53:25;;;;;;;6.40;2.28;;;28.90;63.30;;;;;;5107569;28;20047;-69
2022/04/04 11:56:29;;;;;;;6.30;2.85;;;27.30;57.80;;;;;;5105267;28;20035;-69
2022/04/04 11:59:41;;;;;;;4.25;2.00;;;28.30;58.20;;;;;;5106837;28;20046;-72
2022/04/04 12:02:47;;;;;;;5.07;2.10;;;26.70;58.80;;;;;;5104339;28;20043;-71
2022/04/04 12:05:55;;;;;;;4.20;1.80;;;23.40;61.00;;;;;;5105596;28;20043;-72
2022/04/04 12:09:00;;;;;;;4.22;2.45;;;26.20;57.90;;;;;;5105630;28;20054;-72
2022/04/04 12:12:08;;;;;;;3.00;1.65;;;27.60;59.30;;;;;;5106050;28;20070;-70
2022/04/04 12:15:13;;;;;;;9.65;5.65;;;27.20;59.10;;;;;;5105607;28;20043;-72
2022/04/04 12:18:25;;;;;;;5.35;2.17;;;28.70;58.50;;;;;;5100627;28;20047;-72
2022/04/04 12:21:30;;;;;;;6.15;3.45;;;30.80;58.00;;;;;;5105109;28;20046;-72
2022/04/04 12:28:01;;;;;;;6.32;3.28;;;24.70;59.10;;;;;;5099209;28;20042;-72
2022/04/04 12:31:11;;;;;;;5.72;2.85;;;22.30;62.00;;;;;;5108145;28;20497;-71
2022/04/04 12:34:15;;;;;;;4.45;2.20;;;24.90;60.00;;;;;;5105312;28;20562;-71
2022/04/04 12:37:20;;;;;;;5.40;2.78;;;21.90;62.90;;;;;;5101348;28;20035;-71
2022/04/04 12:40:25;;;;;;;5.28;2.55;;;22.30;61.60;;;;;;5107483;28;20038;-71
2022/04/04 12:43:31;;;;;;;6.05;2.63;;;21.70;61.20;;;;;;5106764;28;20492;-72
2022/04/04 12:46:35;;;;;;;4.10;2.40;;;21.30;63.20;;;;;;5095687;28;20058;-71
2022/04/04 12:49:41;;;;;;;5.22;2.60;;;22.70;64.60;;;;;;5109929;28;20039;-71
2022/04/04 12:53:01;;;;;;;4.88;2.42;;;21.90;62.10;;;;;;5105376;28;20081;-69
2022/04/04 12:56:09;;;;;;;6.35;2.72;;;22.00;62.90;;;;;;5105180;28;20051;-69
2022/04/04 12:59:14;;;;;;;4.57;2.30;;;24.40;62.20;;;;;;5104946;28;20398;-71
2022/04/04 13:02:18;;;;;;;5.55;2.60;;;21.90;61.30;;;;;;5104778;28;20039;-70
2022/04/04 13:05:25;;;;;;;3.65;2.40;;;18.60;63.10;;;;;;5103619;28;20039;-68
2022/04/04 13:08:30;;;;;;;4.82;1.83;;;19.50;63.80;;;;;;5095139;28;20044;-68
2022/04/04 13:11:48;;;;;;;4.20;2.05;;;21.30;63.10;;;;;;5107010;28;20055;-69
2022/04/04 13:14:52;;;;;;;4.85;2.08;;;22.40;63.30;;;;;;5107868;28;20039;-68
2022/04/04 13:17:57;;;;;;;4.63;2.08;;;21.30;60.90;;;;;;5104503;28;20060;-68
2022/04/04 13:21:02;;;;;;;3.08;1.70;;;20.60;65.20;;;;;;5103463;28;20039;-69
2022/04/04 13:24:06;;;;;;;3.17;1.80;;;20.00;66.70;;;;;;5111560;28;20066;-68
2022/04/04 13:27:10;;;;;;;3.97;1.60;;;19.40;64.00;;;;;;5092460;28;20039;-68
2022/04/04 13:30:14;;;;;;;9.95;2.38;;;19.80;66.80;;;;;;5109422;28;20526;-68
2022/04/04 13:33:18;;;;;;;4.82;2.45;;;19.10;64.30;;;;;;5110276;28;20043;-68
2022/04/04 13:36:26;;;;;;;4.40;2.08;;;19.10;69.80;;;;;;5105167;28;20511;-68
2022/04/04 13:39:30;;;;;;;4.95;2.50;;;19.60;65.30;;;;;;5108076;28;20098;-68
2022/04/04 13:42:36;;;;;;;3.42;2.00;;;20.50;67.10;;;;;;5107933;28;20039;-68
2022/04/04 13:45:40;;;;;;;5.50;2.05;;;21.70;65.00;;;;;;5107518;28;20485;-71
2022/04/04 13:48:47;;;;;;;4.78;2.03;;;22.10;65.10;;;;;;5109677;28;20034;-69
2022/04/04 13:51:51;;;;;;;5.57;2.08;;;22.00;65.50;;;;;;5107971;28;20047;-72
2022/04/04 13:54:55;;;;;;;4.43;2.15;;;21.50;65.90;;;;;;5109839;28;20051;-72
2022/04/04 13:57:59;;;;;;;4.88;2.00;;;21.40;67.80;;;;;;5104109;28;20382;-72
2022/04/04 14:01:03;;;;;;;7.47;2.45;;;22.70;65.70;;;;;;5107175;28;20505;-71
2022/04/04 14:04:07;;;;;;;2.92;1.90;;;23.50;63.40;;;;;;5106597;28;20047;-70
2022/04/04 14:07:14;;;;;;;3.28;1.75;;;23.50;62.30;;;;;;5107473;28;20501;-70
2022/04/04 14:10:18;;;;;;;3.20;1.77;;;23.70;62.60;;;;;;5111160;28;20394;-69
2022/04/04 14:13:23;;;;;;;3.25;1.98;;;23.40;61.00;;;;;;5108132;28;20058;-70
2022/04/04 14:16:26;;;;;;;4.88;2.33;;;24.20;63.10;;;;;;5104149;28;20043;-69
2022/04/04 14:19:32;;;;;;;6.35;2.47;;;20.00;61.50;;;;;;5106017;28;20042;-69
2022/04/04 14:22:36;;;;;;;5.05;2.20;;;20.10;64.50;;;;;;5105928;28;20458;-69
2022/04/04 14:25:40;;;;;;;8.27;3.65;;;20.30;64.80;;;;;;5100225;28;20370;-69
2022/04/04 14:28:44;;;;;;;6.88;3.50;;;19.70;67.50;;;;;;5107988;28;20489;-69
2022/04/04 14:31:48;;;;;;;9.07;3.70;;;20.30;68.10;;;;;;5106752;28;20050;-69
2022/04/04 14:34:52;;;;;;;4.85;2.40;;;20.60;67.10;;;;;;5110300;28;20118;-69
2022/04/04 14:37:56;;;;;;;7.45;3.35;;;20.90;65.70;;;;;;5104449;28;20050;-70
2022/04/04 14:41:01;;;;;;;3.45;2.22;;;21.10;65.70;;;;;;5103869;28;20055;-69
2022/04/04 14:44:06;;;;;;;7.53;2.30;;;20.20;67.90;;;;;;5104359;28;20066;-72
2022/04/04 14:47:11;;;;;;;4.00;2.30;;;19.10;64.70;;;;;;5104556;28;20038;-69
2022/04/04 14:50:20;;;;;;;4.65;2.30;;;19.30;68.50;;;;;;5104423;28;20026;-69
2022/04/04 14:53:25;;;;;;;6.93;2.72;;;19.90;68.90;;;;;;5103286;28;20043;-71
2022/04/04 14:56:29;;;;;;;6.15;2.75;;;20.30;69.40;;;;;;5098450;28;20074;-71
2022/04/04 14:59:33;;;;;;;8.02;2.85;;;20.40;65.40;;;;;;5102049;28;20042;-74
2022/04/04 15:02:38;;;;;;;14.73;9.20;;;20.40;67.00;;;;;;5103299;28;20043;-73
2022/04/04 15:05:42;;;;;;;5.30;3.30;;;20.40;68.40;;;;;;5104201;28;20046;-73
2022/04/04 15:08:46;;;;;;;10.50;3.47;;;20.20;68.80;;;;;;5098712;28;20528;-73
2022/04/04 15:11:50;;;;;;;6.53;3.20;;;20.00;69.10;;;;;;5108968;28;20038;-74
2022/04/04 15:14:55;;;;;;;7.25;2.85;;;19.90;70.10;;;;;;5102692;28;20051;-74
2022/04/04 15:17:59;;;;;;;8.77;3.35;;;19.70;69.70;;;;;;5105375;28;20046;-74
2022/04/04 15:21:05;;;;;;;5.90;3.05;;;19.70;70.20;;;;;;5104740;28;20505;-74
2022/04/04 15:24:08;;;;;;;3.72;2.40;;;19.70;70.20;;;;;;5103626;28;20038;-73
2022/04/04 15:27:14;;;;;;;4.85;2.85;;;19.70;69.30;;;;;;5108863;28;20034;-73
2022/04/04 15:30:17;;;;;;;10.90;5.65;;;19.60;70.50;;;;;;5107199;28;20058;-73
2022/04/04 15:33:21;;;;;;;7.38;3.97;;;19.40;70.20;;;;;;5109783;28;20391;-74
2022/04/04 15:36:25;;;;;;;8.70;3.75;;;19.30;71.80;;;;;;5109189;28;20050;-73
2022/04/04 15:39:35;;;;;;;7.07;3.85;;;19.10;70.80;;;;;;5104740;28;20047;-73
2022/04/04 15:42:39;;;;;;;8.90;3.70;;;18.80;71.50;;;;;;5097642;28;20387;-73
2022/04/04 15:45:46;;;;;;;5.03;3.03;;;18.20;71.00;;;;;;5108940;28;20043;-73
2022/04/04 15:48:50;;;;;;;6.15;4.47;;;17.90;72.90;;;;;;5108539;28;20043;-74
2022/04/04 15:51:54;;;;;;;7.72;3.53;;;17.80;74.20;;;;;;5106003;28;20497;-73
2022/04/04 15:54:59;;;;;;;7.60;3.72;;;17.70;73.90;;;;;;5098382;28;20394;-73
2022/04/04 15:58:03;;;;;;;7.43;4.20;;;17.50;74.10;;;;;;5104427;28;20513;-73
2022/04/04 16:01:07;;;;;;;10.02;6.40;;;17.10;74.90;;;;;;5106028;28;20046;-74
2022/04/04 16:04:12;;;;;;;13.40;8.63;;;16.70;75.90;;;;;;5103677;28;20058;-73
2022/04/04 16:07:16;;;;;;;15.95;8.05;;;16.40;76.30;;;;;;5109473;28;20039;-73
2022/04/04 16:10:22;;;;;;;13.05;8.95;;;16.10;76.90;;;;;;5104536;28;20047;-73
2022/04/04 16:13:26;;;;;;;14.18;9.90;;;15.80;76.50;;;;;;5107139;28;20051;-73